Airfield :
LOGIN :

Register | Disclaimer

   EN    FR    IT 

 










Legend :    VFR   Marginal VFR   IFR   Intensive IFR   Very Intensive IFR
Visi :
Ceiling :
>= 8 km
>= 3000ft
5 to 8 km
1000 to 3000 ft
1500m to 5 km
500 to 1000 ft
800 to 1500m
200 to 500 ft
< 800m
< 200 ft
Symbols :   Thunderstorms  Fog  Heavy snow  Heavy precipitations  Wind > 20 kt
SIGMETs :     Misc.  Thunderstorms  Icing  Turbulence  Mountain Waves  Volcanic Ashes






- Airport Elevation : 218 ft
- IATA code : LBG


LFPB - Paris / Le Bourget

CURRENT METAR :
  • 090730Z AUTO 22010KT CAVOK 04/01 Q1007 NOSIG

EXPIRED METARs :
  • 090700Z AUTO 22010KT CAVOK 04/01 Q1007 NOSIG
  • 090630Z AUTO 21007KT CAVOK 04/01 Q1007 NOSIG
  • 090600Z AUTO 22007KT 180V240 CAVOK 04/01 Q1006 NOSIG
  • 090530Z AUTO 22010KT CAVOK 04/01 Q1006 NOSIG
  • 090500Z AUTO 22006KT CAVOK 04/01 Q1006 NOSIG

TAF TAF LFPB
Valid from the 09 at 06:00 until the 10 at 06:00 UTC


090500Z 0906/1006 22010KT CAVOK
BECMG 0915/0917 BKN012
BECMG 0920/0922 20015G25KT
TEMPO 0921/1004 4000 -RA BKN006 FEW008TCU
PROB30
TEMPO 0921/0924 2000 RA BKN004
BECMG 1004/1006 26020G30KT BKN020
PROB40
TEMPO 1005/1006 27020G35KT 4000 -SHRA SCT014TCU
ATIS : +33 1 48 62 43 92



MET'MAP, your aeronautical weather chart ! - Copyright ORBIFLY December 2007 - Disclaimer

ORBIFLY MET'MAP TEAM :

Programming & Development : Alexandra Zaïnal
Concept & original design : Baudouin d'Aumeries
Assistance for programming : Marc-Olivier Méhu
Technical & hardware support : Manuel Goepfert

Contact : metmap@orbifly.com




SOURCES & CREDITS :

   NOAA